Time;durP1;ratioP1;P1;durP2;ratioP2;P2;SDS_P1;SDS_P2;PMS_P1;PMS_P2;Temp;Humidity;BMP_temperature;BMP_pressure;BME280_temperature;BME280_humidity;BME280_pressure;Samples;Min_cycle;Max_cycle;Signal;HPM_P1;HPM_P2
2022/10/10 00:00:42;;;;;;;0.32;0.30;;;;;;;20.50;36.75;100674.88;4920861;29;20094;-92
2022/10/10 00:03:08;;;;;;;0.32;0.30;;;;;;;20.53;36.76;100665.41;4920592;29;20082;-92
2022/10/10 00:05:35;;;;;;;0.30;0.30;;;;;;;20.49;36.90;100666.97;4936641;29;20034;-93
2022/10/10 00:08:00;;;;;;;0.45;0.30;;;;;;;20.54;36.59;100669.75;4920591;29;20027;-92
2022/10/10 00:10:26;;;;;;;0.40;0.30;;;;;;;20.50;36.87;100665.91;4920012;29;20119;-92
2022/10/10 00:12:52;;;;;;;0.30;0.30;;;;;;;20.48;36.77;100659.91;4920481;29;20039;-92
2022/10/10 00:15:18;;;;;;;0.30;0.30;;;;;;;20.66;36.69;100692.25;4919835;29;20042;-92
2022/10/10 00:17:43;;;;;;;0.30;0.20;;;;;;;20.48;36.93;100671.59;4919660;29;20050;-93
2022/10/10 00:20:14;;;;;;;1.38;0.50;;;;;;;20.47;36.83;100671.81;4934336;29;20469;-93
2022/10/10 00:22:40;;;;;;;1.35;0.45;;;;;;;20.51;36.78;100659.41;4917151;29;20054;-93
2022/10/10 00:25:07;;;;;;;0.60;0.40;;;;;;;20.60;36.74;100685.91;4952272;29;20023;-95
2022/10/10 00:27:32;;;;;;;0.30;0.30;;;;;;;20.50;36.82;100672.16;4918923;29;20027;-94
2022/10/10 00:29:58;;;;;;;0.30;0.30;;;;;;;20.57;36.86;100686.38;4935975;29;20558;-95
2022/10/10 00:32:24;;;;;;;1.20;0.40;;;;;;;20.49;36.92;100666.97;4920113;29;20425;-94
2022/10/10 00:34:49;;;;;;;0.50;0.32;;;;;;;20.41;36.92;100660.06;4919485;29;20070;-94
2022/10/10 00:37:15;;;;;;;0.93;0.30;;;;;;;20.47;36.85;100674.53;4935955;29;20385;-94
2022/10/10 00:39:41;;;;;;;0.35;0.32;;;;;;;20.51;36.91;100676.53;4919626;29;20023;-93
2022/10/10 00:42:10;;;;;;;0.30;0.30;;;;;;;20.61;37.07;100690.25;4920216;29;20464;-93
2022/10/10 00:44:36;;;;;;;0.35;0.35;;;;;;;20.40;36.85;100663.84;4919776;29;20043;-93
2022/10/10 00:47:02;;;;;;;0.22;0.22;;;;;;;20.43;36.88;100664.16;4935815;29;20447;-93
2022/10/10 00:49:28;;;;;;;0.30;0.30;;;;;;;20.48;36.99;100671.59;4918966;29;20027;-93
2022/10/10 00:51:55;;;;;;;0.40;0.32;;;;;;;20.46;37.15;100662.88;4935344;29;20411;-94
2022/10/10 00:54:21;;;;;;;0.93;0.40;;;;;;;20.50;36.97;100663.19;4922665;29;20038;-94
2022/10/10 00:56:51;;;;;;;0.40;0.40;;;;;;;20.48;36.85;100660.72;4918976;29;20186;-93
2022/10/10 00:59:17;;;;;;;0.32;0.30;;;;;;;20.54;36.99;100675.19;4935930;29;20030;-92
2022/10/10 01:01:43;;;;;;;0.30;0.30;;;;;;;20.48;36.87;100663.44;4935520;29;20365;-93
2022/10/10 01:04:38;;;;;;;0.80;0.40;;;;;;;20.57;37.02;100677.41;4950882;29;20081;-93
2022/10/10 01:07:11;;;;;;;0.40;0.40;;;;;;;20.52;36.86;100680.06;4933812;29;20194;-93
2022/10/10 01:09:38;;;;;;;0.45;0.30;;;;;;;20.41;36.87;100663.59;4949250;29;20035;-93
2022/10/10 01:12:10;;;;;;;0.95;0.40;;;;;;;20.56;37.06;100678.50;4948975;29;20532;-93
2022/10/10 01:15:06;;;;;;;0.70;0.32;;;;;;;20.52;36.97;100672.72;4950655;29;20489;-94
2022/10/10 01:18:01;;;;;;;0.40;0.30;;;;;;;20.40;37.10;100664.69;4933494;29;20031;-93
2022/10/10 01:20:49;;;;;;;0.50;0.40;;;;;;;20.53;37.09;100684.44;4950362;29;20527;-93
2022/10/10 01:23:40;;;;;;;0.55;0.32;;;;;;;20.53;36.88;100685.25;4935084;29;20041;-92
2022/10/10 01:26:14;;;;;;;0.50;0.50;;;;;;;20.52;37.16;100683.56;4951086;29;20054;-93
2022/10/10 01:29:03;;;;;;;1.30;0.57;;;;;;;20.27;37.06;100659.56;4949996;29;20062;-92
2022/10/10 01:31:28;;;;;;;0.40;0.30;;;;;;;20.42;37.07;100678.81;4938854;29;20118;-92
2022/10/10 01:34:26;;;;;;;0.30;0.30;;;;;;;20.51;37.07;100686.56;4918613;29;20039;-93
2022/10/10 01:36:58;;;;;;;1.35;0.30;;;;;;;20.51;37.07;100686.56;4930596;28;20043;-93
2022/10/10 01:39:29;;;;;;;1.65;0.40;;;;;;;20.51;37.08;100686.56;4951652;29;20110;-93
2022/10/10 01:42:13;;;;;;;0.90;0.30;;;;;;;20.36;37.22;100660.78;4919465;29;20054;-93
2022/10/10 01:44:42;;;;;;;;;;;;;;;20.52;37.38;100686.28;4919809;29;20133;-91
2022/10/10 01:47:09;;;;;;;0.45;0.30;;;;;;;20.39;37.10;100675.78;4950540;29;19918;-94
2022/10/10 01:49:35;;;;;;;0.70;0.40;;;;;;;20.32;37.42;100667.78;4934893;28;20027;-93
2022/10/10 01:52:28;;;;;;;0.30;0.30;;;;;;;20.40;37.11;100675.53;4918483;29;20041;-93
2022/10/10 01:55:15;;;;;;;0.20;0.20;;;;;;;20.49;37.41;100694.13;4937544;28;20031;-93
2022/10/10 01:58:01;;;;;;;0.40;0.40;;;;;;;20.34;37.40;100676.50;4949944;29;20039;-93
2022/10/10 02:00:27;;;;;;;0.65;0.30;;;;;;;20.26;37.40;100666.06;4950369;28;20083;-93
2022/10/10 02:03:35;;;;;;;0.40;0.40;;;;;;;20.47;37.30;100697.06;4918174;29;20038;-94
2022/10/10 02:06:11;;;;;;;1.25;0.40;;;;;;;20.31;37.18;100676.19;4875445;29;20039;-93
2022/10/10 02:08:43;;;;;;;0.50;0.30;;;;;;;20.35;37.00;100685.47;4860629;29;20119;-93
2022/10/10 02:11:09;;;;;;;0.80;0.50;;;;;;;20.45;37.22;100702.78;4933251;28;20035;-93
2022/10/10 02:14:05;;;;;;;0.63;0.30;;;;;;;20.44;36.96;100698.41;4918203;29;20043;-93
2022/10/10 02:16:36;;;;;;;0.40;0.30;;;;;;;20.36;37.10;100682.50;4924201;28;20130;-93
2022/10/10 02:19:01;;;;;;;0.82;0.20;;;;;;;20.24;37.11;100666.28;4916877;29;20028;-93
2022/10/10 02:21:27;;;;;;;0.80;0.43;;;;;;;20.18;37.10;100671.88;4933803;29;20027;-93
2022/10/10 02:23:54;;;;;;;0.65;0.30;;;;;;;20.43;37.13;100702.16;4934441;29;20512;-93
2022/10/10 02:26:20;;;;;;;0.30;0.30;;;;;;;20.24;37.12;100673.63;4918553;29;20031;-93
2022/10/10 02:28:50;;;;;;;0.20;0.20;;;;;;;20.43;37.40;100707.59;4933646;29;20033;-93
2022/10/10 02:31:18;;;;;;;1.65;0.40;;;;;;;20.28;37.11;100680.19;4933999;29;20071;-93
2022/10/10 02:33:46;;;;;;;0.57;0.40;;;;;;;20.29;37.19;100690.00;4918046;29;20031;-93
2022/10/10 02:36:13;;;;;;;0.60;0.30;;;;;;;20.42;37.07;100697.81;4948173;29;20110;-93
2022/10/10 02:38:39;;;;;;;0.28;0.28;;;;;;;20.31;37.31;100690.56;4917810;29;20062;-93
2022/10/10 02:41:04;;;;;;;0.30;0.30;;;;;;;20.30;37.32;100682.66;4949790;29;20031;-93
2022/10/10 02:43:31;;;;;;;0.40;0.30;;;;;;;20.29;37.41;100676.41;4924291;29;20043;-93
2022/10/10 02:46:00;;;;;;;0.75;0.35;;;;;;;20.26;37.28;100676.91;4924356;29;20042;-93
2022/10/10 02:48:25;;;;;;;0.70;0.25;;;;;;;20.35;37.34;100686.31;4928769;29;20493;-93
2022/10/10 02:50:51;;;;;;;0.57;0.38;;;;;;;20.41;37.53;100703.50;4955897;28;20136;-94
2022/10/10 02:53:17;;;;;;;0.88;0.40;;;;;;;20.28;37.38;100682.91;4940268;29;20062;-93
2022/10/10 02:55:42;;;;;;;0.35;0.30;;;;;;;20.25;37.28;100672.56;4940472;29;20031;-93
2022/10/10 02:58:08;;;;;;;1.35;0.40;;;;;;;20.33;37.29;100685.72;4939937;29;20436;-93
2022/10/10 03:00:34;;;;;;;0.45;0.45;;;;;;;20.22;37.30;100660.28;4940024;29;20019;-93
2022/10/10 03:02:59;;;;;;;0.80;0.30;;;;;;;20.25;37.12;100684.22;4939967;29;20484;-93
2022/10/10 03:05:25;;;;;;;0.43;0.30;;;;;;;20.29;37.29;100679.13;4953932;28;20023;-93
2022/10/10 03:07:51;;;;;;;1.50;0.40;;;;;;;20.14;37.37;100657.16;4924098;29;20039;-93
2022/10/10 03:10:16;;;;;;;0.40;0.40;;;;;;;20.24;37.46;100681.75;4923506;29;20495;-94
2022/10/10 03:12:42;;;;;;;0.30;0.25;;;;;;;20.23;37.46;100663.81;4939865;29;20469;-94
2022/10/10 03:15:08;;;;;;;0.40;0.40;;;;;;;20.31;37.37;100690.56;4939455;28;20952;-93
2022/10/10 03:17:34;;;;;;;0.50;0.40;;;;;;;20.21;37.09;100666.81;4922671;29;20035;-94
2022/10/10 03:19:59;;;;;;;0.60;0.40;;;;;;;20.13;37.33;100669.91;4939801;28;20522;-93
2022/10/10 03:22:25;;;;;;;1.02;0.30;;;;;;;20.16;37.25;100668.59;4923378;29;20028;-93
2022/10/10 03:24:51;;;;;;;0.35;0.35;;;;;;;20.29;37.38;100684.56;4922333;29;20086;-94
2022/10/10 03:27:16;;;;;;;0.65;0.30;;;;;;;20.27;37.24;100679.38;4923246;29;20118;-94
2022/10/10 03:29:42;;;;;;;0.40;0.30;;;;;;;20.20;37.31;100675.19;4954500;29;20034;-93
2022/10/10 03:32:08;;;;;;;0.43;0.30;;;;;;;19.96;37.47;100637.31;4939881;28;20541;-94
2022/10/10 03:34:33;;;;;;;0.40;0.40;;;;;;;20.18;37.41;100672.72;4938686;29;20515;-93
2022/10/10 03:36:59;;;;;;;0.50;0.50;;;;;;;20.17;37.30;100676.50;4939722;29;20031;-93
2022/10/10 03:39:27;;;;;;;0.73;0.32;;;;;;;20.33;37.44;100696.56;4923250;29;20138;-94
2022/10/10 03:41:52;;;;;;;0.45;0.30;;;;;;;20.11;37.45;100671.22;4923012;29;20031;-93
2022/10/10 03:44:18;;;;;;;0.90;0.32;;;;;;;20.22;37.34;100678.47;4923895;29;20399;-94
2022/10/10 03:46:44;;;;;;;0.40;0.30;;;;;;;20.22;37.16;100694.75;4923424;29;20028;-94
2022/10/10 03:49:10;;;;;;;0.47;0.40;;;;;;;20.26;37.37;100685.03;4955543;29;20046;-94
2022/10/10 03:51:35;;;;;;;1.52;0.30;;;;;;;20.17;37.49;100670.25;4923455;29;20027;-93
2022/10/10 03:54:01;;;;;;;0.60;0.30;;;;;;;20.25;37.40;100689.66;4953252;28;20027;-94
2022/10/10 03:56:27;;;;;;;0.40;0.40;;;;;;;20.18;37.46;100688.16;4920819;29;20035;-93
2022/10/10 03:58:52;;;;;;;0.50;0.35;;;;;;;20.24;37.49;100693.44;4920686;29;20055;-93
2022/10/10 04:01:18;;;;;;;0.63;0.35;;;;;;;20.25;37.45;100697.00;4920612;29;20019;-93
2022/10/10 04:03:44;;;;;;;1.50;0.45;;;;;;;20.21;37.64;100693.94;4920223;29;20034;-93
2022/10/10 04:06:09;;;;;;;0.65;0.30;;;;;;;20.04;37.53;100674.06;4934343;29;20031;-93
2022/10/10 04:08:35;;;;;;;0.52;0.30;;;;;;;20.24;37.40;100706.19;4936218;29;20034;-93
2022/10/10 04:11:01;;;;;;;0.60;0.30;;;;;;;20.18;37.49;100697.13;4919643;29;20063;-93
2022/10/10 04:13:26;;;;;;;0.38;0.38;;;;;;;20.20;37.53;100686.03;4918529;29;20031;-93
2022/10/10 04:15:53;;;;;;;0.30;0.30;;;;;;;20.28;37.54;100699.19;4936085;29;20097;-93
2022/10/10 04:18:18;;;;;;;0.30;0.30;;;;;;;20.23;37.36;100686.38;4924749;29;20028;-93
2022/10/10 04:20:44;;;;;;;0.75;0.40;;;;;;;20.26;37.68;100702.19;4936021;29;20069;-93
2022/10/10 04:23:09;;;;;;;0.57;0.40;;;;;;;20.22;37.45;100692.03;4953619;28;20031;-92
2022/10/10 04:25:35;;;;;;;0.98;0.40;;;;;;;20.25;37.58;100705.13;4952323;29;20050;-92
2022/10/10 04:28:01;;;;;;;0.60;0.40;;;;;;;20.23;37.33;100693.66;4935879;29;20110;-92
2022/10/10 04:30:29;;;;;;;0.30;0.30;;;;;;;20.23;37.70;100699.09;4952696;28;20058;-93
2022/10/10 04:32:54;;;;;;;0.47;0.30;;;;;;;20.24;37.49;100703.47;4951798;28;20126;-92
2022/10/10 04:35:20;;;;;;;0.68;0.50;;;;;;;20.23;37.41;100705.38;4953135;28;20026;-93
2022/10/10 04:37:46;;;;;;;0.30;0.28;;;;;;;20.22;37.48;100700.19;4952132;29;20043;-93
2022/10/10 04:40:11;;;;;;;0.20;0.20;;;;;;;20.12;37.27;100689.16;4951298;29;20111;-93
2022/10/10 04:42:37;;;;;;;0.68;0.50;;;;;;;20.22;37.66;100701.00;4951959;29;20078;-93
2022/10/10 04:45:03;;;;;;;1.63;0.40;;;;;;;20.22;37.22;100700.19;4954297;28;20050;-93
2022/10/10 04:47:29;;;;;;;0.63;0.40;;;;;;;20.22;37.47;100689.34;4972591;28;20050;-94
2022/10/10 04:49:55;;;;;;;0.95;0.45;;;;;;;20.17;37.60;100698.19;4972622;28;20030;-93
2022/10/10 04:52:20;;;;;;;0.45;0.30;;;;;;;20.21;37.47;100703.94;4971633;28;20031;-93
2022/10/10 04:54:46;;;;;;;0.35;0.30;;;;;;;20.20;37.50;100707.75;4955564;28;20035;-93
2022/10/10 04:57:11;;;;;;;0.70;0.40;;;;;;;20.18;37.59;100704.44;4971481;28;20114;-93
2022/10/10 04:59:40;;;;;;;0.20;0.20;;;;;;;20.18;37.23;100704.44;4972237;28;20027;-93
2022/10/10 05:02:06;;;;;;;0.40;0.40;;;;;;;20.11;37.49;100695.63;4954543;28;20035;-93
2022/10/10 05:04:31;;;;;;;0.52;0.40;;;;;;;20.16;37.57;100704.72;4955289;28;20037;-93
2022/10/10 05:06:57;;;;;;;0.73;0.43;;;;;;;20.15;37.33;100700.34;4970876;28;20031;-93
2022/10/10 05:09:23;;;;;;;0.57;0.50;;;;;;;20.16;37.43;100701.16;4971163;28;20026;-93
2022/10/10 05:11:48;;;;;;;0.32;0.32;;;;;;;20.15;37.61;100699.53;4954695;28;20058;-93
2022/10/10 05:14:14;;;;;;;0.32;0.30;;;;;;;20.14;37.68;100698.66;4970932;28;20503;-93
2022/10/10 05:16:43;;;;;;;1.80;0.40;;;;;;;20.11;37.36;100698.34;4971226;28;20394;-93
2022/10/10 05:19:08;;;;;;;0.82;0.50;;;;;;;20.13;37.61;100704.34;4953789;28;20058;-93
2022/10/10 05:21:34;;;;;;;1.00;0.50;;;;;;;20.12;37.25;100702.72;4955903;28;20027;-93
2022/10/10 05:23:59;;;;;;;0.55;0.40;;;;;;;20.12;37.29;100708.13;4971954;28;20054;-94
2022/10/10 05:26:25;;;;;;;0.90;0.20;;;;;;;20.11;37.36;100703.78;4954098;28;20039;-93
2022/10/10 05:28:51;;;;;;;0.65;0.35;;;;;;;19.88;37.08;100670.25;4971377;28;20034;-93
2022/10/10 05:31:16;;;;;;;0.90;0.40;;;;;;;19.89;37.42;100680.06;4971474;28;20031;-93
2022/10/10 05:33:42;;;;;;;0.30;0.30;;;;;;;19.88;37.55;100678.41;4955685;28;20038;-94
2022/10/10 05:36:10;;;;;;;0.57;0.45;;;;;;;20.08;37.40;100711.34;4971780;28;20019;-95
2022/10/10 05:38:37;;;;;;;0.85;0.50;;;;;;;20.07;37.45;100709.69;4953890;28;20463;-94
2022/10/10 05:41:02;;;;;;;0.93;0.40;;;;;;;20.05;37.53;100705.56;4940969;28;20034;-93
2022/10/10 05:43:28;;;;;;;0.65;0.40;;;;;;;20.06;37.30;100713.47;4971436;28;20061;-94
2022/10/10 05:45:54;;;;;;;0.93;0.60;;;;;;;20.06;37.70;100718.91;4954649;28;20030;-93
2022/10/10 05:48:19;;;;;;;2.00;0.50;;;;;;;19.98;37.81;100704.91;4971627;28;20842;-94
2022/10/10 05:50:47;;;;;;;1.48;0.40;;;;;;;20.02;37.55;100706.06;4970864;28;20555;-94
2022/10/10 05:53:12;;;;;;;1.20;0.43;;;;;;;19.80;37.77;100682.34;4959399;28;20030;-94
2022/10/10 05:55:38;;;;;;;0.93;0.40;;;;;;;20.04;37.81;100707.47;4971635;28;20178;-94
2022/10/10 05:58:04;;;;;;;0.65;0.40;;;;;;;19.89;37.59;100693.63;4971838;28;20034;-94
2022/10/10 06:00:30;;;;;;;0.52;0.40;;;;;;;19.81;37.83;100677.72;4939038;28;20435;-94
2022/10/10 06:02:57;;;;;;;1.05;0.40;;;;;;;20.00;37.48;100706.28;4953438;28;20664;-93
2022/10/10 06:05:23;;;;;;;0.68;0.30;;;;;;;20.02;37.91;100720.47;4955969;28;20456;-93
2022/10/10 06:07:49;;;;;;;1.35;0.40;;;;;;;20.00;37.70;100709.00;4970917;28;20050;-93
2022/10/10 06:10:14;;;;;;;0.55;0.38;;;;;;;19.98;37.89;100713.84;4970511;28;20019;-94
2022/10/10 06:12:40;;;;;;;0.85;0.40;;;;;;;19.81;37.69;100678.53;4970813;28;20035;-93
2022/10/10 06:15:06;;;;;;;1.00;0.50;;;;;;;19.75;37.65;100678.69;4937588;28;20041;-93
2022/10/10 06:17:32;;;;;;;1.17;0.40;;;;;;;19.89;37.98;100709.88;4970090;28;20065;-94
2022/10/10 06:19:57;;;;;;;0.35;0.35;;;;;;;19.97;37.70;100720.38;4953378;28;20470;-94
2022/10/10 06:22:23;;;;;;;0.68;0.40;;;;;;;19.93;37.94;100711.03;4956388;28;20395;-93
2022/10/10 06:24:49;;;;;;;2.08;0.50;;;;;;;19.95;37.70;100711.63;4954009;28;20527;-93
2022/10/10 06:27:15;;;;;;;0.68;0.30;;;;;;;19.97;37.60;100720.38;4970255;28;20026;-94
2022/10/10 06:29:40;;;;;;;0.60;0.30;;;;;;;19.98;37.68;100723.88;4970603;28;20509;-94
2022/10/10 06:32:06;;;;;;;1.67;0.35;;;;;;;19.97;37.69;100724.94;4970369;28;20118;-94
2022/10/10 06:34:32;;;;;;;0.60;0.30;;;;;;;19.94;38.12;100726.25;4969900;28;20499;-93
2022/10/10 06:36:57;;;;;;;1.67;0.60;;;;;;;19.96;37.92;100723.31;4970628;28;20494;-94
2022/10/10 06:39:23;;;;;;;0.32;0.30;;;;;;;19.95;37.86;100725.19;4955225;28;20037;-94
2022/10/10 06:41:49;;;;;;;0.45;0.30;;;;;;;19.95;37.93;100721.66;4970420;28;20479;-94
2022/10/10 06:44:16;;;;;;;0.30;0.30;;;;;;;19.95;37.69;100727.91;4970276;28;20042;-94
2022/10/10 06:46:42;;;;;;;0.90;0.45;;;;;;;19.89;37.97;100728.88;4955159;28;20105;-93
2022/10/10 06:49:12;;;;;;;0.85;0.20;;;;;;;19.92;38.07;100727.56;4970343;28;20054;-94
2022/10/10 06:51:38;;;;;;;1.15;0.47;;;;;;;19.89;37.86;100718.84;4970175;28;20031;-93
2022/10/10 06:54:04;;;;;;;1.00;0.30;;;;;;;19.70;37.84;100684.81;4927244;28;20065;-94
2022/10/10 06:56:29;;;;;;;0.40;0.30;;;;;;;19.85;37.96;100717.69;4936849;28;20461;-94
2022/10/10 06:58:55;;;;;;;2.28;0.40;;;;;;;19.75;37.98;100706.63;4970359;28;20601;-94
2022/10/10 07:01:21;;;;;;;0.50;0.50;;;;;;;19.69;37.93;100694.81;4953062;28;20376;-94
2022/10/10 07:03:47;;;;;;;1.08;0.40;;;;;;;19.91;38.02;100742.19;4952436;28;20035;-94
2022/10/10 07:06:13;;;;;;;0.98;0.38;;;;;;;19.91;37.85;100743.00;4938935;28;20436;-93
2022/10/10 07:08:39;;;;;;;0.60;0.30;;;;;;;19.90;37.76;100741.34;4953225;28;20366;-93
2022/10/10 07:11:06;;;;;;;0.40;0.35;;;;;;;19.89;37.80;100745.97;4969933;28;20033;-93
2022/10/10 07:13:32;;;;;;;1.27;0.50;;;;;;;19.91;37.95;100750.34;4970127;28;20117;-92
2022/10/10 07:15:58;;;;;;;0.80;0.50;;;;;;;19.91;38.18;100742.19;4969885;28;20062;-93
2022/10/10 07:18:24;;;;;;;1.60;0.47;;;;;;;19.90;38.26;100757.63;4970067;28;20062;-93
2022/10/10 07:20:49;;;;;;;0.93;0.40;;;;;;;19.89;37.78;100751.38;4970098;28;20468;-93
2022/10/10 07:23:16;;;;;;;0.75;0.40;;;;;;;19.88;38.46;100760.56;4969844;28;20082;-93
2022/10/10 07:25:41;;;;;;;0.30;0.30;;;;;;;19.87;38.43;100752.72;4952999;28;20534;-93
2022/10/10 07:28:10;;;;;;;0.77;0.40;;;;;;;19.89;38.03;100761.44;4971314;28;20031;-93
2022/10/10 07:30:40;;;;;;;0.95;0.50;;;;;;;19.88;38.40;100755.16;4955923;28;20487;-93
2022/10/10 07:33:05;;;;;;;0.80;0.40;;;;;;;19.89;38.03;100751.38;4955849;28;20387;-94
2022/10/10 07:35:31;;;;;;;0.73;0.40;;;;;;;19.88;37.87;100759.75;4958917;28;20042;-95
2022/10/10 07:37:59;;;;;;;0.75;0.40;;;;;;;19.84;38.32;100758.59;4973922;28;20046;-94
2022/10/10 07:40:25;;;;;;;1.52;0.45;;;;;;;19.80;38.27;100747.41;4973110;28;20369;-95
2022/10/10 07:42:51;;;;;;;1.08;0.45;;;;;;;19.86;38.29;100767.31;4973267;28;20118;-94
2022/10/10 07:45:16;;;;;;;0.52;0.45;;;;;;;19.85;38.36;100766.50;4973462;28;20035;-93
2022/10/10 07:47:42;;;;;;;0.40;0.30;;;;;;;19.83;38.28;100757.78;4973228;28;20042;-93
2022/10/10 07:50:10;;;;;;;0.95;0.57;;;;;;;19.85;38.20;100762.94;4973448;28;20030;-94
2022/10/10 07:52:36;;;;;;;1.48;0.40;;;;;;;19.84;38.44;100764.03;4972553;28;20078;-94
2022/10/10 07:55:05;;;;;;;0.40;0.40;;;;;;;19.83;38.50;100762.38;4973374;28;20106;-94
2022/10/10 07:57:33;;;;;;;1.02;0.50;;;;;;;19.83;38.25;100767.78;4972551;28;20026;-94
2022/10/10 08:00:07;;;;;;;0.60;0.30;;;;;;;19.81;38.19;100773.47;4973426;28;20035;-94
2022/10/10 08:02:35;;;;;;;1.13;0.40;;;;;;;19.82;38.68;100766.16;4939945;28;20088;-94
2022/10/10 08:05:01;;;;;;;1.42;0.45;;;;;;;19.83;38.84;100773.22;4972720;28;20054;-94
2022/10/10 08:07:26;;;;;;;0.65;0.45;;;;;;;19.82;38.75;100768.88;4955863;28;20054;-94
2022/10/10 08:09:52;;;;;;;0.70;0.32;;;;;;;19.80;38.70;100760.13;4940935;28;20085;-94
2022/10/10 08:12:18;;;;;;;1.98;0.40;;;;;;;19.80;38.73;100762.84;4973147;28;20034;-93
2022/10/10 08:14:43;;;;;;;0.95;0.50;;;;;;;19.78;39.01;100765.81;4973012;28;20026;-93
2022/10/10 08:17:09;;;;;;;2.38;0.85;;;;;;;19.79;38.94;100772.06;4972473;28;20019;-93
2022/10/10 08:19:35;;;;;;;1.25;0.50;;;;;;;19.76;38.94;100762.50;4955639;28;20487;-94
2022/10/10 08:22:00;;;;;;;0.82;0.47;;;;;;;19.79;38.81;100761.22;4972518;28;20031;-93
2022/10/10 08:24:26;;;;;;;1.15;0.40;;;;;;;19.79;38.73;100772.06;4972630;28;20026;-93
2022/10/10 08:26:51;;;;;;;1.20;0.30;;;;;;;19.64;39.09;100738.09;4972477;28;20383;-93
2022/10/10 08:29:17;;;;;;;1.90;0.65;;;;;;;19.81;39.13;100772.63;4973163;28;20033;-93
2022/10/10 08:31:43;;;;;;;0.85;0.40;;;;;;;19.80;39.22;100763.69;4972533;28;20015;-93
2022/10/10 08:34:08;;;;;;;0.50;0.30;;;;;;;19.81;39.30;100770.75;4972229;28;20035;-93
2022/10/10 08:36:34;;;;;;;0.93;0.50;;;;;;;19.81;39.50;100764.50;4972522;28;20080;-93
2022/10/10 08:39:00;;;;;;;2.58;0.50;;;;;;;19.82;39.25;100766.16;4939185;28;20562;-93
2022/10/10 08:41:43;;;;;;;1.08;0.50;;;;;;;19.82;39.45;100771.59;4971990;28;20125;-93
2022/10/10 08:44:32;;;;;;;1.83;0.43;;;;;;;19.81;39.28;100769.94;4971476;28;20112;-93
2022/10/10 08:47:22;;;;;;;1.30;0.50;;;;;;;19.80;39.31;100770.97;4959183;28;20493;-93
2022/10/10 08:50:20;;;;;;;0.40;0.40;;;;;;;19.81;39.37;100780.78;4956677;28;20034;-93
2022/10/10 08:52:56;;;;;;;0.90;0.40;;;;;;;19.82;39.45;100777.00;4971589;28;20026;-94
2022/10/10 08:55:32;;;;;;;0.82;0.50;;;;;;;19.81;39.63;100764.50;4953898;28;20067;-93
2022/10/10 08:58:03;;;;;;;0.75;0.50;;;;;;;19.81;39.67;100776.16;4958874;28;20019;-93
2022/10/10 09:00:32;;;;;;;1.17;0.50;;;;;;;19.82;39.59;100766.16;4972238;28;20030;-93
2022/10/10 09:02:59;;;;;;;1.75;0.40;;;;;;;19.83;39.63;100763.22;4937825;28;20035;-93
2022/10/10 09:05:34;;;;;;;2.15;0.50;;;;;;;19.81;39.58;100770.75;4970070;28;20027;-94
2022/10/10 09:08:11;;;;;;;2.17;0.60;;;;;;;19.83;39.74;100773.22;4954815;28;20424;-93
2022/10/10 09:10:57;;;;;;;1.13;0.50;;;;;;;19.83;39.75;100767.78;4955048;28;20438;-93
2022/10/10 09:13:39;;;;;;;0.65;0.40;;;;;;;19.83;39.82;100775.94;4970603;28;20513;-93
2022/10/10 09:16:26;;;;;;;2.05;0.50;;;;;;;19.84;39.96;100764.03;4959069;28;20039;-94
2022/10/10 09:19:14;;;;;;;0.88;0.40;;;;;;;19.85;39.79;100768.38;4972117;28;20031;-94
2022/10/10 09:21:40;;;;;;;1.83;0.50;;;;;;;19.82;39.98;100763.47;4972162;28;20438;-94
2022/10/10 09:24:15;;;;;;;2.35;0.57;;;;;;;19.84;40.18;100766.75;4971709;28;20113;-93
2022/10/10 09:26:50;;;;;;;2.05;0.50;;;;;;;19.85;39.93;100766.50;4954592;28;20037;-94
2022/10/10 09:29:49;;;;;;;1.63;0.60;;;;;;;19.83;40.11;100757.78;4971556;28;20081;-94
2022/10/10 09:32:22;;;;;;;3.20;0.50;;;;;;;19.87;40.23;100768.97;4956506;28;20027;-94
2022/10/10 09:35:14;;;;;;;0.95;0.47;;;;;;;19.82;40.35;100760.75;4970886;28;20069;-94
2022/10/10 09:37:40;;;;;;;1.23;0.50;;;;;;;19.86;40.37;100764.59;4966994;28;20051;-93
2022/10/10 09:40:18;;;;;;;0.63;0.40;;;;;;;19.87;40.47;100766.28;4970935;28;20113;-94
2022/10/10 09:42:44;;;;;;;0.88;0.40;;;;;;;19.88;40.26;100759.75;4954931;28;20118;-93
2022/10/10 09:45:40;;;;;;;1.40;0.47;;;;;;;19.89;40.44;100767.66;4970784;28;20387;-95
2022/10/10 09:48:22;;;;;;;0.88;0.50;;;;;;;19.88;40.23;100762.47;4953707;28;20034;-94
2022/10/10 09:50:48;;;;;;;2.72;0.55;;;;;;;19.74;40.44;100751.06;4953743;28;20042;-94
2022/10/10 09:53:15;;;;;;;1.42;0.40;;;;;;;19.74;40.45;100750.22;4943034;28;20384;-94
2022/10/10 09:55:41;;;;;;;1.05;0.40;;;;;;;19.79;40.72;100762.03;4922198;28;20034;-94
2022/10/10 09:58:26;;;;;;;0.93;0.47;;;;;;;19.62;40.64;100723.13;4922892;28;20022;-94
2022/10/10 10:00:52;;;;;;;1.67;0.50;;;;;;;19.66;40.46;100730.56;4926043;28;20027;-94
2022/10/10 10:03:19;;;;;;;0.73;0.63;;;;;;;19.73;40.80;100738.56;4921636;28;20522;-94
2022/10/10 10:05:59;;;;;;;0.93;0.65;;;;;;;19.91;40.56;100767.44;4938992;28;20031;-94
2022/10/10 10:08:32;;;;;;;0.85;0.60;;;;;;;19.88;40.60;100757.06;4953986;28;20038;-94
2022/10/10 10:10:58;;;;;;;1.95;0.50;;;;;;;19.80;40.80;100752.00;4923353;28;20085;-93
2022/10/10 10:13:28;;;;;;;1.30;0.40;;;;;;;19.73;40.54;100737.72;4939263;28;20030;-94
2022/10/10 10:16:14;;;;;;;1.00;0.40;;;;;;;19.94;40.66;100769.66;4952507;28;20392;-94
2022/10/10 10:18:44;;;;;;;0.73;0.40;;;;;;;19.83;40.61;100765.09;4936855;28;20042;-94
2022/10/10 10:21:18;;;;;;;0.50;0.40;;;;;;;19.75;40.57;100749.19;4952973;28;20019;-95
2022/10/10 10:23:57;;;;;;;3.25;0.50;;;;;;;19.93;40.63;100757.16;4942789;28;20031;-94
2022/10/10 10:26:42;;;;;;;1.35;0.60;;;;;;;19.95;40.67;100760.44;4953162;28;20035;-94
2022/10/10 10:29:28;;;;;;;1.30;0.60;;;;;;;19.89;40.69;100748.69;4956162;28;20453;-94
2022/10/10 10:32:09;;;;;;;2.85;0.70;;;;;;;19.92;40.86;100752.81;4938061;28;20090;-95
2022/10/10 10:34:56;;;;;;;1.25;0.50;;;;;;;19.94;40.84;100760.69;4954127;28;20038;-94
2022/10/10 10:37:34;;;;;;;1.85;0.50;;;;;;;19.93;40.89;100765.28;4954140;28;20090;-94
2022/10/10 10:40:24;;;;;;;1.25;0.50;;;;;;;19.93;40.83;100759.88;4954835;28;20086;-94
2022/10/10 10:43:02;;;;;;;1.13;0.60;;;;;;;19.85;41.13;100752.94;4937342;28;20038;-94
2022/10/10 10:45:53;;;;;;;1.67;0.70;;;;;;;19.93;40.98;100756.34;4932580;29;20253;-94
2022/10/10 10:48:43;;;;;;;1.17;0.52;;;;;;;19.94;41.00;100763.41;4932847;29;20023;-93
2022/10/10 10:51:33;;;;;;;2.17;0.50;;;;;;;19.93;40.84;100759.06;4933805;29;20042;-93
2022/10/10 10:54:06;;;;;;;0.75;0.30;;;;;;;19.84;40.92;100758.59;4932801;29;20408;-93
2022/10/10 10:56:38;;;;;;;0.75;0.40;;;;;;;19.94;41.20;100758.81;4933809;29;20023;-94
2022/10/10 10:59:22;;;;;;;1.02;0.50;;;;;;;19.93;40.98;100762.56;4921690;29;20098;-93
2022/10/10 11:02:10;;;;;;;0.63;0.43;;;;;;;19.70;41.06;100726.31;4916376;29;20118;-94
2022/10/10 11:05:03;;;;;;;1.33;0.55;;;;;;;19.72;41.19;100733.38;4939095;29;20078;-93
2022/10/10 11:07:33;;;;;;;1.02;0.47;;;;;;;19.96;41.00;100755.88;4925870;29;20023;-93
2022/10/10 11:10:06;;;;;;;1.08;0.60;;;;;;;19.92;41.17;100751.97;4910708;29;20028;-94
2022/10/10 11:12:51;;;;;;;2.13;0.60;;;;;;;19.98;41.28;100759.16;4936486;29;20127;-94
2022/10/10 11:15:25;;;;;;;0.77;0.35;;;;;;;19.85;41.13;100733.13;4937318;29;20024;-93
2022/10/10 11:18:05;;;;;;;0.57;0.40;;;;;;;19.93;41.29;100754.44;4909006;29;20130;-94
2022/10/10 11:20:38;;;;;;;0.82;0.45;;;;;;;19.82;41.28;100726.31;4937285;29;20023;-94
2022/10/10 11:23:21;;;;;;;1.55;0.43;;;;;;;19.84;41.17;100732.31;4925752;29;20034;-92
2022/10/10 11:25:57;;;;;;;2.78;0.55;;;;;;;19.99;41.45;100753.50;4906269;29;20027;-94
2022/10/10 11:28:30;;;;;;;1.20;0.50;;;;;;;20.01;41.13;100751.34;4937971;29;20027;-94
2022/10/10 11:31:09;;;;;;;1.40;0.50;;;;;;;19.88;41.36;100738.06;4936109;29;20039;-94
2022/10/10 11:33:41;;;;;;;1.05;0.43;;;;;;;19.92;41.35;100739.25;4921439;29;20122;-94
2022/10/10 11:36:27;;;;;;;0.40;0.30;;;;;;;19.87;41.24;100729.13;4918636;29;20023;-94
2022/10/10 11:39:02;;;;;;;1.67;0.50;;;;;;;19.72;41.35;100700.84;4935795;29;20106;-94